NWWR

Maré Airport

Maré, New Caledonia
TAF NWWR 211700Z 2118/2218 12010KT 9999 FEW020 SCT035 TEMPO 2118/2206 SHRA BKN014 FEW020TCU
Issued Valid From Valid To
Jan-21 @ 17:00 UTC
(7 hours ago)
Jan-21 @ 18:00 UTC
(6 hours ago)
Jan-22 @ 18:00 UTC
(in 18 hours)
Jan-21 @ 18:00 to Jan-22 @ 18:00
TAF NWWR 211700Z 2118/2218 12010KT 9999 FEW020 SCT035
Wind Visibility Clouds
120° at 10 knots 10,000+ meters
  • Few at 2,000' AGL
  • Scattered at 3,500' AGL
Temporary Jan-21 @ 18:00 to Jan-22 @ 06:00
TEMPO 2118/2206 SHRA BKN014 FEW020TCU
Clouds Conditions
  • Broken at 1,400' AGL
  • Few at 2,000' AGL
  • Rain
TAF NWWR 211700Z 2118/2218 12010KT 9999 FEW020 SCT035 TEMPO 2118/2206 SHRA BKN014 FEW020TCU
Issued Jan-21 @ 17:00 UTC
(7 hours ago)
Valid From Jan-21 @ 18:00 UTC
(6 hours ago)
Valid To Jan-22 @ 18:00 UTC
(in 18 hours)
Jan-21 @ 18:00 - Jan-22 @ 18:00
Wind Visibility
120° at 10 knots 10,000+ meters
Clouds
  • Few at 2,000' AGL
  • Scattered at 3,500' AGL
Temporary Jan-21 @ 18:00 - Jan-22 @ 06:00
Clouds
  • Broken at 1,400' AGL
  • Few at 2,000' AGL
Conditions
  • Rain